Time;durP1;ratioP1;P1;durP2;ratioP2;P2;SDS_P1;SDS_P2;PMS_P1;PMS_P2;Temp;Humidity;BMP_temperature;BMP_pressure;BME280_temperature;BME280_humidity;BME280_pressure;Samples;Min_cycle;Max_cycle;Signal;HPM_P1;HPM_P2
2022/08/07 00:00:23;;;;;;;;;;;;;;;23.23;40.44;102485.56;7277900;19;153540;-62
2022/08/07 00:02:50;;;;;;;;;;;;;;;23.20;40.32;102484.19;7281658;19;152056;-62
2022/08/07 00:05:19;;;;;;;;;;;;;;;23.22;40.25;102479.09;7279747;19;153440;-61
2022/08/07 00:07:49;;;;;;;;;;;;;;;23.18;40.34;102483.63;7281494;19;152302;-61
2022/08/07 00:10:26;;;;;;;;;;;;;;;23.22;40.73;102478.22;7279969;19;152634;-61
2022/08/07 00:12:57;;;;;;;;;;;;;;;23.19;40.29;102479.66;7283494;19;152845;-62
2022/08/07 00:15:28;;;;;;;;;;;;;;;23.18;40.27;102486.44;7280611;19;152411;-61
2022/08/07 00:18:12;;;;;;;;;;;;;;;23.16;40.49;102477.44;7283004;19;153281;-62
2022/08/07 00:20:49;;;;;;;;;;;;;;;23.18;40.54;102477.97;7284121;19;153257;-61
2022/08/07 00:23:16;;;;;;;;;;;;;;;23.22;40.45;102478.22;7283516;19;151946;-62
2022/08/07 00:25:47;;;;;;;;;;;;;;;23.18;40.27;102480.78;7281816;19;152673;-61
2022/08/07 00:28:26;;;;;;;;;;;;;;;23.23;40.45;102477.97;7279710;19;154295;-61
2022/08/07 00:31:00;;;;;;;;;;;;;;;23.21;40.29;102477.41;7286254;19;152153;-61
2022/08/07 00:33:32;;;;;;;;;;;;;;;23.19;40.45;102474.03;7287672;19;152796;-61
2022/08/07 00:35:59;;;;;;;;;;;;;;;23.23;40.44;102475.13;7286639;19;156586;-61
2022/08/07 00:38:26;;;;;;;;;;;;;;;23.20;40.54;102470.09;7289371;19;153295;-61
2022/08/07 00:40:59;;;;;;;;;;;;;;;23.19;40.20;102462.75;7286074;19;152667;-62
2022/08/07 00:43:26;;;;;;;;;;;;;;;23.18;40.26;102458.25;7295459;19;152436;-61
2022/08/07 00:46:12;;;;;;;;;;;;;;;23.16;40.04;102466.16;7288532;19;153940;-61
2022/08/07 00:48:40;;;;;;;;;;;;;;;23.17;40.17;102467.81;7282946;19;154081;-62
2022/08/07 00:51:08;;;;;;;;;;;;;;;23.18;39.97;102463.03;7287574;19;152478;-61
2022/08/07 00:53:35;;;;;;;;;;;;;;;23.13;40.25;102458.25;7288404;19;153433;-61
2022/08/07 00:56:04;;;;;;;;;;;;;;;23.11;40.35;102462.50;7287801;19;153689;-62
2022/08/07 00:58:43;;;;;;;;;;;;;;;23.16;39.93;102462.50;7288418;19;152216;-61
2022/08/07 01:01:15;;;;;;;;;;;;;;;23.13;40.17;102454.59;7284222;19;153637;-61
2022/08/07 01:03:45;;;;;;;;;;;;;;;23.14;39.84;102453.47;7281642;19;153529;-61
2022/08/07 01:06:25;;;;;;;;;;;;;;;23.16;39.83;102451.22;7296261;19;154755;-62
2022/08/07 01:08:52;;;;;;;;;;;;;;;23.11;39.74;102452.09;7283900;19;153351;-61
2022/08/07 01:11:26;;;;;;;;;;;;;;;23.10;39.88;102453.22;7289265;19;151699;-62
2022/08/07 01:14:15;;;;;;;;;;;;;;;23.09;40.39;102453.50;7286391;19;154869;-61
2022/08/07 01:16:46;;;;;;;;;;;;;;;23.06;40.23;102454.94;7286224;19;153400;-63
2022/08/07 01:19:15;;;;;;;;;;;;;;;23.07;40.18;102458.59;7285350;19;152216;-61
2022/08/07 01:21:45;;;;;;;;;;;;;;;23.04;40.13;102454.34;7287898;19;153641;-61
2022/08/07 01:24:13;;;;;;;;;;;;;;;23.04;39.83;102457.19;7286295;19;153164;-61
2022/08/07 01:26:47;;;;;;;;;;;;;;;23.04;40.11;102454.34;7287144;19;152140;-61
2022/08/07 01:29:18;;;;;;;;;;;;;;;23.04;40.16;102457.19;7293635;19;152785;-61
2022/08/07 01:31:45;;;;;;;;;;;;;;;23.07;39.98;102453.81;7284754;19;152719;-62
2022/08/07 01:34:16;;;;;;;;;;;;;;;23.03;40.22;102455.50;7283019;19;152997;-62
2022/08/07 01:36:45;;;;;;;;;;;;;;;23.03;39.97;102453.50;7286193;19;153821;-62
2022/08/07 01:39:23;;;;;;;;;;;;;;;23.02;40.01;102454.66;7286027;19;151774;-61
2022/08/07 01:42:05;;;;;;;;;;;;;;;23.04;39.95;102449.56;7286901;19;152734;-61
2022/08/07 01:44:52;;;;;;;;;;;;;;;23.05;39.69;102458.88;7285710;19;154887;-62
2022/08/07 01:47:19;;;;;;;;;;;;;;;23.05;40.21;102456.06;7287826;19;152142;-61
2022/08/07 01:50:07;;;;;;;;;;;;;;;23.03;39.78;102458.34;7246144;19;155157;-62
2022/08/07 01:52:38;;;;;;;;;;;;;;;23.03;39.82;102453.50;7283935;19;152725;-62
2022/08/07 01:55:22;;;;;;;;;;;;;;;23.02;39.72;102457.47;7284703;19;152472;-62
2022/08/07 01:57:54;;;;;;;;;;;;;;;23.02;39.85;102453.81;7285545;19;152639;-63
2022/08/07 02:00:36;;;;;;;;;;;;;;;23.04;39.78;102451.53;7282824;19;153259;-62
2022/08/07 02:03:17;;;;;;;;;;;;;;;22.97;39.49;102451.88;7283639;19;152663;-62
2022/08/07 02:05:52;;;;;;;;;;;;;;;22.96;38.96;102454.97;7280972;19;152705;-62
2022/08/07 02:08:26;;;;;;;;;;;;;;;22.91;39.56;102447.38;7284559;19;153446;-61
2022/08/07 02:10:57;;;;;;;;;;;;;;;22.91;38.88;102449.34;7282389;19;154023;-62
2022/08/07 02:13:26;;;;;;;;;;;;;;;22.88;38.77;102458.38;7289000;19;153620;-61
2022/08/07 02:16:15;;;;;;;;;;;;;;;22.81;39.23;102458.69;7284273;19;152191;-61
2022/08/07 02:18:46;;;;;;;;;;;;;;;22.77;39.36;102453.91;7279874;19;153250;-62
2022/08/07 02:21:15;;;;;;;;;;;;;;;22.75;39.01;102456.19;7282569;19;152311;-61
2022/08/07 02:23:51;;;;;;;;;;;;;;;22.73;39.21;102453.63;7283189;19;154140;-62
2022/08/07 02:26:20;;;;;;;;;;;;;;;22.74;39.35;102457.31;7283083;19;153831;-62
2022/08/07 02:29:01;;;;;;;;;;;;;;;22.72;39.17;102459.56;7283736;19;154050;-62
2022/08/07 02:31:31;;;;;;;;;;;;;;;22.68;39.40;102456.44;7284717;19;152750;-62
2022/08/07 02:34:00;;;;;;;;;;;;;;;22.67;39.25;102442.66;7280913;19;154261;-61
2022/08/07 02:36:38;;;;;;;;;;;;;;;22.63;39.57;102448.00;7292476;19;152426;-62
2022/08/07 02:39:07;;;;;;;;;;;;;;;22.66;39.48;102446.59;7284573;19;154632;-62
2022/08/07 02:41:55;;;;;;;;;;;;;;;22.63;39.67;102454.47;7282546;19;152050;-61
2022/08/07 02:44:23;;;;;;;;;;;;;;;22.62;39.77;102446.34;7283334;19;153029;-61
2022/08/07 02:47:02;;;;;;;;;;;;;;;22.59;39.50;102455.34;7280852;19;153413;-62
2022/08/07 02:49:29;;;;;;;;;;;;;;;22.58;39.62;102445.19;7280463;19;152588;-61
2022/08/07 02:52:22;;;;;;;;;;;;;;;22.56;39.94;102439.88;7279160;19;155223;-61
2022/08/07 02:55:00;;;;;;;;;;;;;;;22.56;39.79;102448.31;7278770;19;153228;-62
2022/08/07 02:57:29;;;;;;;;;;;;;;;22.59;39.91;102444.06;7284641;19;153043;-61
2022/08/07 03:00:00;;;;;;;;;;;;;;;22.56;40.07;102445.50;7289235;19;153429;-62
2022/08/07 03:02:31;;;;;;;;;;;;;;;22.52;40.07;102449.16;7282170;19;152555;-61
2022/08/07 03:05:00;;;;;;;;;;;;;;;22.50;40.10;102441.00;7281353;19;152332;-62
2022/08/07 03:07:32;;;;;;;;;;;;;;;22.48;40.38;102446.09;7282783;19;154468;-62
2022/08/07 03:10:20;;;;;;;;;;;;;;;22.47;40.38;102444.41;7280919;19;153075;-61
2022/08/07 03:12:49;;;;;;;;;;;;;;;22.48;40.63;102445.25;7284889;19;152977;-61
2022/08/07 03:15:18;;;;;;;;;;;;;;;22.47;40.36;102449.19;7281883;19;153591;-62
2022/08/07 03:18:05;;;;;;;;;;;;;;;22.49;40.62;102455.34;7283580;19;152500;-61
2022/08/07 03:20:34;;;;;;;;;;;;;;;22.46;40.78;102441.84;7279154;19;153580;-62
2022/08/07 03:23:02;;;;;;;;;;;;;;;22.43;41.00;102446.09;7290306;19;153998;-62
2022/08/07 03:25:31;;;;;;;;;;;;;;;22.40;40.98;102441.00;7283277;19;154297;-62
2022/08/07 03:28:09;;;;;;;;;;;;;;;22.39;41.23;102438.50;7281717;19;152661;-61
2022/08/07 03:34:01;;;;;;;;;;;;;;;22.35;41.54;102435.38;7278528;19;152783;-61
2022/08/07 03:36:29;;;;;;;;;;;;;;;22.34;41.59;102439.34;7281521;19;154741;-62
2022/08/07 03:39:02;;;;;;;;;;;;;;;22.33;41.62;102442.44;7281979;19;153130;-61
2022/08/07 03:41:33;;;;;;;;;;;;;;;22.31;41.56;102444.69;7280617;19;153410;-61
2022/08/07 03:44:13;;;;;;;;;;;;;;;22.30;42.00;102440.22;7279883;19;153942;-61
2022/08/07 03:46:41;;;;;;;;;;;;;;;22.32;41.66;102441.59;7288910;19;152520;-62
2022/08/07 03:49:29;;;;;;;;;;;;;;;22.25;41.82;102438.25;7278975;19;156983;-61
2022/08/07 03:51:57;;;;;;;;;;;;;;;22.30;41.65;102437.41;7277681;19;152503;-61
2022/08/07 03:54:27;;;;;;;;;;;;;;;22.26;42.00;102436.28;7278372;19;152894;-61
2022/08/07 03:57:15;;;;;;;;;;;;;;;22.25;42.34;102440.22;7281756;19;157981;-61
2022/08/07 04:00:03;;;;;;;;;;;;;;;22.23;42.13;102434.84;7281437;19;152757;-61
2022/08/07 04:02:31;;;;;;;;;;;;;;;22.24;42.36;102442.19;7280515;19;153524;-62
2022/08/07 04:04:58;;;;;;;;;;;;;;;22.25;42.60;102441.06;7279169;19;153433;-61
2022/08/07 04:07:25;;;;;;;;;;;;;;;22.21;42.73;102436.28;7283753;19;152964;-61
2022/08/07 04:10:08;;;;;;;;;;;;;;;22.25;42.62;102441.06;7288334;19;152195;-61
2022/08/07 04:12:41;;;;;;;;;;;;;;;22.20;42.24;102434.59;7283363;19;152320;-61
2022/08/07 04:15:09;;;;;;;;;;;;;;;22.14;42.79;102433.75;7281833;19;153298;-62
2022/08/07 04:17:37;;;;;;;;;;;;;;;22.17;42.42;102430.34;7280341;19;153414;-61
2022/08/07 04:20:24;;;;;;;;;;;;;;;22.17;42.64;102424.72;7277068;19;152223;-61
2022/08/07 04:22:52;;;;;;;;;;;;;;;22.11;42.76;102428.69;7282718;19;153707;-62
2022/08/07 04:25:31;;;;;;;;;;;;;;;22.10;43.04;102419.41;7280932;19;153979;-61
2022/08/07 04:28:09;;;;;;;;;;;;;;;22.10;42.75;102422.22;7282717;19;152150;-61
2022/08/07 04:30:39;;;;;;;;;;;;;;;22.11;42.62;102428.69;7286942;19;152521;-62
2022/08/07 04:33:23;;;;;;;;;;;;;;;22.10;42.79;102427.84;7282578;19;154492;-62
2022/08/07 04:35:50;;;;;;;;;;;;;;;22.09;42.65;102422.47;7278971;19;153956;-61
2022/08/07 04:38:20;;;;;;;;;;;;;;;22.11;42.84;102429.53;7282493;19;153274;-61
2022/08/07 04:40:47;;;;;;;;;;;;;;;22.08;42.99;102430.09;7280860;19;151909;-61
2022/08/07 04:43:25;;;;;;;;;;;;;;;22.11;43.25;102428.69;7282257;19;153009;-62
2022/08/07 04:46:17;;;;;;;;;;;;;;;22.09;43.20;102430.94;7281193;19;157173;-61
2022/08/07 04:48:57;;;;;;;;;;;;;;;22.09;43.16;102430.94;7277020;19;153144;-62
2022/08/07 04:51:34;;;;;;;;;;;;;;;22.08;43.13;102441.34;7281442;19;152825;-62
2022/08/07 04:54:17;;;;;;;;;;;;;;;22.06;43.38;102437.97;7282024;19;154035;-62
2022/08/07 04:57:06;;;;;;;;;;;;;;;22.14;43.56;102443.03;7281581;19;152635;-62
2022/08/07 04:59:56;;;;;;;;;;;;;;;22.07;43.54;102444.47;7279615;19;156356;-62
2022/08/07 05:02:41;;;;;;;;;;;;;;;22.06;43.52;102442.75;7278552;19;152077;-61
2022/08/07 05:05:17;;;;;;;;;;;;;;;22.00;43.72;102449.50;7278471;19;152898;-61
2022/08/07 05:08:13;;;;;;;;;;;;;;;22.04;43.38;102440.22;7280435;19;156576;-62
2022/08/07 05:11:00;;;;;;;;;;;;;;;21.99;43.71;102447.81;7281000;19;152911;-61
2022/08/07 05:13:35;;;;;;;;;;;;;;;21.97;43.78;102455.72;7280741;19;152766;-61
2022/08/07 05:16:22;;;;;;;;;;;;;;;21.94;43.37;102457.09;7279449;19;157203;-61
2022/08/07 05:18:55;;;;;;;;;;;;;;;21.98;43.96;102457.41;7290648;19;153091;-61
2022/08/07 05:21:25;;;;;;;;;;;;;;;21.97;43.60;102450.09;7285498;19;153071;-62
2022/08/07 05:24:15;;;;;;;;;;;;;;;21.95;43.47;102452.31;7286465;19;152189;-62
2022/08/07 05:26:42;;;;;;;;;;;;;;;21.95;43.80;102449.50;7287028;19;152684;-62
2022/08/07 05:29:14;;;;;;;;;;;;;;;21.93;43.66;102447.00;7286741;19;153416;-61
2022/08/07 05:31:42;;;;;;;;;;;;;;;21.90;43.76;102449.47;7287387;19;153282;-62
2022/08/07 05:34:18;;;;;;;;;;;;;;;21.96;43.39;102459.66;7282427;19;153996;-61
2022/08/07 05:36:52;;;;;;;;;;;;;;;21.91;43.75;102446.38;7285779;19;153936;-61
2022/08/07 05:39:20;;;;;;;;;;;;;;;21.91;43.82;102456.78;7285864;19;152479;-62
2022/08/07 05:42:07;;;;;;;;;;;;;;;21.93;43.59;102458.25;7291979;19;156066;-62
2022/08/07 05:44:39;;;;;;;;;;;;;;;21.94;43.52;102459.91;7286954;19;151724;-61
2022/08/07 05:47:13;;;;;;;;;;;;;;;21.96;43.57;102459.66;7286531;19;153027;-61
2022/08/07 05:49:46;;;;;;;;;;;;;;;21.97;43.37;102461.34;7282919;19;153585;-62
2022/08/07 05:52:15;;;;;;;;;;;;;;;21.93;43.70;102465.84;7285174;19;152976;-61
2022/08/07 05:54:45;;;;;;;;;;;;;;;21.92;43.60;102469.75;7280446;19;153260;-61
2022/08/07 05:57:22;;;;;;;;;;;;;;;21.89;43.46;102461.88;7284066;19;153327;-61
2022/08/07 05:59:56;;;;;;;;;;;;;;;21.91;43.54;102466.09;7284622;19;152668;-62
2022/08/07 06:02:25;;;;;;;;;;;;;;;22.03;43.80;102471.50;7284250;19;152714;-62
2022/08/07 06:04:56;;;;;;;;;;;;;;;21.93;43.40;102468.66;7289388;19;153845;-61
2022/08/07 06:07:23;;;;;;;;;;;;;;;21.91;43.57;102474.53;7286763;19;152039;-62
2022/08/07 06:10:10;;;;;;;;;;;;;;;21.86;43.63;102474.53;7283292;19;156221;-62
2022/08/07 06:12:40;;;;;;;;;;;;;;;21.85;43.94;102474.81;7286571;19;152386;-62
2022/08/07 06:15:08;;;;;;;;;;;;;;;21.85;43.84;102481.28;7285913;19;154881;-62
2022/08/07 06:17:41;;;;;;;;;;;;;;;21.87;43.68;102478.19;7284218;19;154270;-62
2022/08/07 06:20:23;;;;;;;;;;;;;;;21.85;43.71;102480.44;7283299;19;152148;-62
2022/08/07 06:23:10;;;;;;;;;;;;;;;21.84;43.60;102476.78;7282113;19;155868;-62
2022/08/07 06:25:57;;;;;;;;;;;;;;;21.87;44.03;102481.00;7284514;19;157171;-61
2022/08/07 06:28:24;;;;;;;;;;;;;;;21.88;43.77;102479.88;7293060;19;151681;-62
2022/08/07 06:30:54;;;;;;;;;;;;;;;21.93;43.81;102477.97;7283953;19;154217;-62
2022/08/07 06:33:21;;;;;;;;;;;;;;;21.86;43.89;102482.97;7286093;19;151883;-62
2022/08/07 06:35:48;;;;;;;;;;;;;;;21.87;44.18;102481.00;7282823;19;153936;-62
2022/08/07 06:38:35;;;;;;;;;;;;;;;21.85;43.72;102480.44;7283642;19;157409;-62
2022/08/07 06:41:06;;;;;;;;;;;;;;;21.83;44.05;102482.69;7285250;19;151723;-62
2022/08/07 06:43:40;;;;;;;;;;;;;;;21.86;44.17;102484.94;7285443;19;153384;-62
2022/08/07 06:46:12;;;;;;;;;;;;;;;21.90;44.18;102477.63;7283711;19;154006;-61
2022/08/07 06:48:39;;;;;;;;;;;;;;;21.84;43.74;102485.22;7288702;19;152443;-62
2022/08/07 06:51:26;;;;;;;;;;;;;;;21.86;43.95;102482.97;7282722;19;154697;-62
2022/08/07 06:54:02;;;;;;;;;;;;;;;21.85;44.17;102483.25;7283275;19;152194;-62
2022/08/07 06:56:49;;;;;;;;;;;;;;;21.82;43.91;102486.63;7283834;19;155380;-62
2022/08/07 06:59:20;;;;;;;;;;;;;;;21.79;44.49;102482.41;7284706;19;155631;-61
2022/08/07 07:02:10;;;;;;;;;;;;;;;21.79;44.19;102484.38;7282684;19;153526;-61
2022/08/07 07:04:37;;;;;;;;;;;;;;;21.83;44.09;102483.53;7279583;19;152618;-62
2022/08/07 07:07:20;;;;;;;;;;;;;;;21.84;44.24;102487.19;7245872;19;156269;-62
2022/08/07 07:10:07;;;;;;;;;;;;;;;21.82;44.20;102483.81;7274090;19;153133;-62
2022/08/07 07:12:48;;;;;;;;;;;;;;;21.83;43.92;102482.69;7289418;19;152674;-61
2022/08/07 07:15:22;;;;;;;;;;;;;;;21.83;43.74;102488.31;7282169;19;151978;-62
2022/08/07 07:18:01;;;;;;;;;;;;;;;21.89;44.39;102485.25;7281815;19;154166;-62
2022/08/07 07:20:33;;;;;;;;;;;;;;;21.93;44.32;102482.75;7278960;19;153437;-61
2022/08/07 07:23:01;;;;;;;;;;;;;;;21.87;44.56;102481.00;7281749;19;152943;-61
2022/08/07 07:25:50;;;;;;;;;;;;;;;21.92;44.53;102481.84;7281217;19;156921;-62
2022/08/07 07:28:39;;;;;;;;;;;;;;;21.88;44.21;102477.06;7280917;19;157285;-62
2022/08/07 07:31:34;;;;;;;;;;;;;;;21.88;44.24;102477.06;7282983;19;152214;-62
2022/08/07 07:34:12;;;;;;;;;;;;;;;21.89;44.42;102478.75;7279657;19;153173;-62
2022/08/07 07:36:42;;;;;;;;;;;;;;;21.97;44.76;102475.41;7289256;19;154070;-61
2022/08/07 07:39:21;;;;;;;;;;;;;;;22.16;44.01;102479.38;7282434;19;153422;-62
2022/08/07 07:41:51;;;;;;;;;;;;;;;22.01;44.30;102484.97;7282064;19;154082;-62
2022/08/07 07:44:40;;;;;;;;;;;;;;;22.02;44.56;102483.88;7281869;19;152152;-62
2022/08/07 07:47:08;;;;;;;;;;;;;;;21.97;44.19;102478.22;7281663;19;153109;-62
2022/08/07 07:49:50;;;;;;;;;;;;;;;22.03;44.42;102491.19;7279944;19;153373;-62
2022/08/07 07:52:40;;;;;;;;;;;;;;;22.04;44.65;102484.41;7282920;19;152684;-61
2022/08/07 07:55:08;;;;;;;;;;;;;;;22.03;44.38;102485.56;7282843;19;153682;-61
2022/08/07 07:57:38;;;;;;;;;;;;;;;21.99;44.45;102487.22;7281982;19;154034;-62
2022/08/07 08:00:19;;;;;;;;;;;;;;;22.05;44.79;102500.19;7290506;19;152608;-62
2022/08/07 08:03:00;;;;;;;;;;;;;;;22.01;44.45;102496.25;7279895;19;154369;-61
2022/08/07 08:05:34;;;;;;;;;;;;;;;22.04;44.20;102487.22;7279271;19;153063;-62
2022/08/07 08:08:22;;;;;;;;;;;;;;;22.00;44.54;102489.75;7281079;19;152765;-61
2022/08/07 08:11:02;;;;;;;;;;;;;;;22.02;44.60;102492.31;7277048;19;155070;-62
2022/08/07 08:13:30;;;;;;;;;;;;;;;22.05;44.18;102488.91;7282693;19;153186;-61
2022/08/07 08:16:07;;;;;;;;;;;;;;;22.05;44.29;102486.97;7281330;19;153300;-62
2022/08/07 08:18:38;;;;;;;;;;;;;;;22.03;44.62;102483.56;7277379;19;154343;-62
2022/08/07 08:21:05;;;;;;;;;;;;;;;22.06;44.24;102488.66;7282449;19;152779;-62
2022/08/07 08:29:05;;;;;;;;;;;;;;;22.10;44.56;102477.66;7281981;19;153133;-62
2022/08/07 08:31:35;;;;;;;;;;;;;;;22.09;44.42;102476.81;7280579;19;152728;-61
2022/08/07 08:34:22;;;;;;;;;;;;;;;22.10;44.16;102475.69;7250212;19;154446;-62
2022/08/07 08:36:58;;;;;;;;;;;;;;;22.13;44.17;102485.53;7280999;19;153287;-61
2022/08/07 08:39:27;;;;;;;;;;;;;;;22.14;44.27;102475.97;7277347;19;153462;-62
2022/08/07 08:42:46;;;;;;;;;;;;;;;22.15;43.87;102474.84;7278497;19;152947;-62
2022/08/07 08:45:35;;;;;;;;;;;;;;;22.18;44.29;102469.50;7277942;19;153009;-62
2022/08/07 08:48:37;;;;;;;;;;;;;;;22.18;44.03;102466.69;7285203;19;152531;-62
2022/08/07 08:51:26;;;;;;;;;;;;;;;22.22;44.59;102464.13;7278709;19;153234;-62
2022/08/07 08:54:16;;;;;;;;;;;;;;;22.24;44.28;102466.69;7283943;19;155483;-62
2022/08/07 08:56:46;;;;;;;;;;;;;;;22.26;44.24;102464.44;7286478;19;152719;-62
2022/08/07 08:59:22;;;;;;;;;;;;;;;22.27;44.29;102466.09;7286324;19;153799;-62
2022/08/07 09:01:59;;;;;;;;;;;;;;;22.27;43.84;102454.84;7283629;19;153353;-62
2022/08/07 09:04:52;;;;;;;;;;;;;;;22.28;44.19;102451.75;7284495;19;154492;-61
2022/08/07 09:07:31;;;;;;;;;;;;;;;22.30;44.12;102457.09;7288338;19;153102;-62
2022/08/07 09:10:12;;;;;;;;;;;;;;;22.32;44.19;102457.66;7288638;19;153668;-62
2022/08/07 09:12:46;;;;;;;;;;;;;;;22.33;44.09;102454.56;7285763;19;153863;-62
2022/08/07 09:15:29;;;;;;;;;;;;;;;22.35;44.15;102454.28;7285016;19;154179;-61
2022/08/07 09:18:17;;;;;;;;;;;;;;;22.37;44.29;102444.41;7287021;19;152871;-61
2022/08/07 09:21:04;;;;;;;;;;;;;;;22.37;44.07;102441.59;7281812;19;153460;-62
2022/08/07 09:23:57;;;;;;;;;;;;;;;22.38;43.92;102440.47;7282729;19;154518;-62
2022/08/07 09:27:03;;;;;;;;;;;;;;;22.41;43.40;102441.84;7287706;19;151942;-61
2022/08/07 09:29:37;;;;;;;;;;;;;;;22.52;43.12;102435.94;7285834;19;152132;-62
2022/08/07 09:32:42;;;;;;;;;;;;;;;22.47;43.11;102438.75;7284628;19;155471;-62
2022/08/07 09:35:18;;;;;;;;;;;;;;;22.51;43.23;102427.75;7291241;19;152773;-62
2022/08/07 09:38:10;;;;;;;;;;;;;;;22.48;42.85;102433.97;7285926;19;156209;-62
2022/08/07 09:40:49;;;;;;;;;;;;;;;22.50;42.80;102424.09;7286154;19;152203;-62
2022/08/07 09:43:35;;;;;;;;;;;;;;;22.49;42.90;102421.56;7286344;19;152732;-62
2022/08/07 09:46:29;;;;;;;;;;;;;;;22.52;42.97;102418.19;7285984;19;156376;-62
2022/08/07 09:49:27;;;;;;;;;;;;;;;22.60;42.32;102423.22;7283509;19;152305;-62
2022/08/07 09:52:14;;;;;;;;;;;;;;;22.60;42.24;102426.88;7285572;19;154797;-62
2022/08/07 09:55:04;;;;;;;;;;;;;;;22.62;42.71;102418.16;7285100;19;153372;-62
2022/08/07 09:57:54;;;;;;;;;;;;;;;22.68;42.45;102404.88;7286054;19;152372;-61
2022/08/07 10:00:25;;;;;;;;;;;;;;;22.72;42.53;102411.66;7292716;19;153379;-61
2022/08/07 10:03:03;;;;;;;;;;;;;;;22.77;41.77;102406.00;7284709;19;152341;-62
2022/08/07 10:05:58;;;;;;;;;;;;;;;22.80;42.37;102403.47;7283971;19;155267;-62
2022/08/07 10:08:35;;;;;;;;;;;;;;;;;;7283515;19;153981;-62
2022/08/07 10:11:10;;;;;;;;;;;;;;;22.89;42.17;102407.38;7280161;19;160398;-62
2022/08/07 10:14:15;;;;;;;;;;;;;;;22.91;41.90;102398.59;7281981;19;154201;-62
2022/08/07 10:17:05;;;;;;;;;;;;;;;22.96;41.48;102398.59;7283414;19;153732;-61
2022/08/07 10:19:42;;;;;;;;;;;;;;;22.99;41.95;102392.34;7282930;19;152703;-61
2022/08/07 10:22:16;;;;;;;;;;;;;;;23.01;41.36;102399.41;7284327;19;152092;-62
2022/08/07 10:24:56;;;;;;;;;;;;;;;23.03;41.43;102394.31;7292075;19;153859;-61
2022/08/07 10:27:32;;;;;;;;;;;;;;;23.05;41.24;102385.56;7285340;19;153120;-62
2022/08/07 10:30:15;;;;;;;;;;;;;;;23.09;41.36;102378.22;7284760;19;153333;-62
2022/08/07 10:33:00;;;;;;;;;;;;;;;23.11;41.60;102386.38;7286740;19;152955;-62
2022/08/07 10:35:46;;;;;;;;;;;;;;;23.14;41.16;102386.63;7283434;19;152910;-62
2022/08/07 10:38:29;;;;;;;;;;;;;;;23.16;41.14;102384.38;7283394;19;153326;-61
2022/08/07 10:41:20;;;;;;;;;;;;;;;23.21;41.03;102386.34;7285781;19;152350;-62
2022/08/07 10:44:18;;;;;;;;;;;;;;;23.23;41.19;102379.25;7280456;19;156122;-62
2022/08/07 10:47:17;;;;;;;;;;;;;;;23.25;41.03;102373.31;7283540;19;153315;-61
2022/08/07 10:50:10;;;;;;;;;;;;;;;23.27;40.81;102369.06;7289417;19;153176;-61
2022/08/07 10:52:50;;;;;;;;;;;;;;;23.30;41.06;102365.69;7283728;19;155586;-62
2022/08/07 10:55:37;;;;;;;;;;;;;;;23.30;40.72;102368.50;7284000;19;153503;-62
2022/08/07 10:58:14;;;;;;;;;;;;;;;23.32;40.75;102369.03;7283991;19;154071;-62
2022/08/07 11:00:48;;;;;;;;;;;;;;;23.35;40.97;102365.63;7280023;19;154443;-62
2022/08/07 11:03:22;;;;;;;;;;;;;;;23.37;40.59;102369.00;7283866;19;151972;-62
2022/08/07 11:06:21;;;;;;;;;;;;;;;23.38;40.76;102370.69;7284042;19;153640;-62
2022/08/07 11:09:02;;;;;;;;;;;;;;;23.40;40.84;102359.09;7281924;19;152613;-62
2022/08/07 11:11:47;;;;;;;;;;;;;;;23.42;40.93;102352.03;7288267;19;152222;-62
2022/08/07 11:14:25;;;;;;;;;;;;;;;23.44;40.47;102351.75;7277032;19;154706;-62
2022/08/07 11:17:12;;;;;;;;;;;;;;;23.45;40.80;102354.28;7281781;19;152615;-61
2022/08/07 11:19:48;;;;;;;;;;;;;;;23.48;40.47;102350.06;7279292;19;153419;-62
2022/08/07 11:22:22;;;;;;;;;;;;;;;23.48;40.89;102344.41;7283321;19;153706;-62
2022/08/07 11:25:22;;;;;;;;;;;;;;;23.49;40.46;102341.28;7277619;19;153071;-62
2022/08/07 11:28:04;;;;;;;;;;;;;;;23.53;40.38;102337.88;7283971;19;152158;-62
2022/08/07 11:30:42;;;;;;;;;;;;;;;23.55;40.48;102329.97;7281658;19;154212;-62
2022/08/07 11:33:42;;;;;;;;;;;;;;;23.58;40.25;102326.53;7283770;19;152107;-62
2022/08/07 11:36:39;;;;;;;;;;;;;;;23.57;40.34;102324.88;7288795;19;152895;-62
2022/08/07 11:39:24;;;;;;;;;;;;;;;23.59;40.16;102325.41;7282744;19;152148;-62
2022/08/07 11:42:24;;;;;;;;;;;;;;;23.61;40.09;102306.22;7283840;19;153492;-62
2022/08/07 11:44:55;;;;;;;;;;;;;;;23.64;40.35;102320.56;7278179;19;154180;-62
2022/08/07 11:47:42;;;;;;;;;;;;;;;23.65;39.68;102315.75;7283699;19;152408;-61
2022/08/07 11:50:44;;;;;;;;;;;;;;;23.67;39.70;102305.00;7279606;19;153632;-62
2022/08/07 11:53:49;;;;;;;;;;;;;;;23.67;39.69;102313.47;7281539;19;154295;-63
2022/08/07 11:56:47;;;;;;;;;;;;;;;23.68;39.46;102301.91;7281714;19;152416;-62
2022/08/07 11:59:18;;;;;;;;;;;;;;;23.69;39.78;102303.59;7283767;19;152673;-61
2022/08/07 12:02:17;;;;;;;;;;;;;;;23.69;39.41;102306.41;7288727;19;156054;-61
2022/08/07 12:05:01;;;;;;;;;;;;;;;23.72;39.66;102305.81;7275969;19;154378;-61
2022/08/07 12:07:37;;;;;;;;;;;;;;;23.72;39.79;102296.50;7282445;19;154358;-61
2022/08/07 12:10:08;;;;;;;;;;;;;;;23.72;39.30;102302.13;7282273;19;152013;-63
2022/08/07 12:12:54;;;;;;;;;;;;;;;23.73;39.31;102296.19;7282686;19;153908;-62
2022/08/07 12:15:25;;;;;;;;;;;;;;;23.75;39.25;102293.09;7281896;19;153431;-62
2022/08/07 12:18:20;;;;;;;;;;;;;;;23.75;39.41;102277.00;7282201;19;152507;-62
2022/08/07 12:20:58;;;;;;;;;;;;;;;23.76;39.60;102289.94;7279835;19;154370;-61
2022/08/07 12:23:37;;;;;;;;;;;;;;;23.79;39.43;102280.06;7280331;19;154141;-61
2022/08/07 12:26:29;;;;;;;;;;;;;;;23.78;39.65;102272.72;7291195;19;152424;-61
2022/08/07 12:29:12;;;;;;;;;;;;;;;23.79;39.23;102275.25;7287108;19;153961;-62
2022/08/07 12:31:39;;;;;;;;;;;;;;;23.78;39.36;102272.72;7288404;19;152618;-62
2022/08/07 12:34:28;;;;;;;;;;;;;;;23.81;39.64;102281.44;7285245;19;155091;-62
2022/08/07 12:36:55;;;;;;;;;;;;;;;23.80;39.64;102276.91;7288294;19;154341;-61
2022/08/07 12:39:25;;;;;;;;;;;;;;;23.82;39.67;102273.81;7288037;19;152707;-61
2022/08/07 12:42:13;;;;;;;;;;;;;;;23.85;39.81;102267.56;7288123;19;154396;-61
2022/08/07 12:44:43;;;;;;;;;;;;;;;23.85;40.00;102273.19;7284697;19;153733;-62
2022/08/07 12:47:19;;;;;;;;;;;;;;;23.85;40.53;102267.56;7288040;19;152931;-61
2022/08/07 12:50:14;;;;;;;;;;;;;;;23.85;39.81;102267.56;7291832;19;153431;-61
2022/08/07 12:53:06;;;;;;;;;;;;;;;23.86;40.18;102264.44;7289079;19;152086;-62
2022/08/07 12:55:50;;;;;;;;;;;;;;;23.86;40.58;102264.44;7287858;19;153195;-61
2022/08/07 12:58:35;;;;;;;;;;;;;;;23.86;40.14;102258.81;7287969;19;153804;-61
2022/08/07 13:01:29;;;;;;;;;;;;;;;23.87;40.43;102259.66;7288750;19;152484;-61
2022/08/07 13:04:20;;;;;;;;;;;;;;;23.90;40.14;102250.56;7279243;19;151898;-63
2022/08/07 13:07:06;;;;;;;;;;;;;;;23.89;40.51;102240.44;7286609;19;154240;-62
2022/08/07 13:09:49;;;;;;;;;;;;;;;23.87;40.81;102246.38;7287161;19;152550;-62
2022/08/07 13:12:36;;;;;;;;;;;;;;;23.88;40.50;102247.22;7287507;19;155017;-62
2022/08/07 13:15:26;;;;;;;;;;;;;;;23.87;40.38;102249.19;7292891;19;154176;-62
2022/08/07 13:18:20;;;;;;;;;;;;;;;23.90;40.34;102247.75;7287473;19;152726;-62
2022/08/07 13:21:12;;;;;;;;;;;;;;;23.92;40.14;102243.50;7283551;19;154513;-62
2022/08/07 13:24:07;;;;;;;;;;;;;;;23.94;40.17;102244.03;7285281;19;152529;-62
2022/08/07 13:26:47;;;;;;;;;;;;;;;23.98;40.26;102238.63;7287710;19;153342;-62
2022/08/07 13:29:32;;;;;;;;;;;;;;;23.99;40.33;102236.63;7285158;19;153201;-62
2022/08/07 13:32:04;;;;;;;;;;;;;;;24.01;39.72;102229.56;7286824;19;152237;-62
2022/08/07 13:35:04;;;;;;;;;;;;;;;23.98;40.23;102235.81;7283420;19;155390;-62